sensor_id;sensor_type;location;lat;lon;timestamp;P1;durP1;ratioP1;P2;durP2;ratioP2
24407;SDS011;12542;50.924;4.516;2022-07-04T00:00:48;8.43;;;4.00;;
24407;SDS011;12542;50.924;4.516;2022-07-04T00:03:15;10.57;;;4.45;;
24407;SDS011;12542;50.924;4.516;2022-07-04T00:05:40;9.77;;;4.43;;
24407;SDS011;12542;50.924;4.516;2022-07-04T00:08:08;7.88;;;3.45;;
24407;SDS011;12542;50.924;4.516;2022-07-04T00:10:34;10.15;;;3.80;;
24407;SDS011;12542;50.924;4.516;2022-07-04T00:13:00;7.40;;;3.83;;
24407;SDS011;12542;50.924;4.516;2022-07-04T00:15:26;8.25;;;4.03;;
24407;SDS011;12542;50.924;4.516;2022-07-04T00:17:52;11.80;;;4.10;;
24407;SDS011;12542;50.924;4.516;2022-07-04T00:20:18;7.30;;;3.70;;
24407;SDS011;12542;50.924;4.516;2022-07-04T00:22:44;8.32;;;3.33;;
24407;SDS011;12542;50.924;4.516;2022-07-04T00:25:13;8.93;;;4.18;;
24407;SDS011;12542;50.924;4.516;2022-07-04T00:27:39;7.10;;;3.55;;
24407;SDS011;12542;50.924;4.516;2022-07-04T00:30:05;9.57;;;3.50;;
24407;SDS011;12542;50.924;4.516;2022-07-04T00:32:31;7.88;;;3.72;;
24407;SDS011;12542;50.924;4.516;2022-07-04T00:34:57;9.82;;;3.92;;
24407;SDS011;12542;50.924;4.516;2022-07-04T00:37:23;7.80;;;3.35;;
24407;SDS011;12542;50.924;4.516;2022-07-04T00:39:48;10.40;;;4.00;;
24407;SDS011;12542;50.924;4.516;2022-07-04T00:42:16;8.98;;;3.85;;
24407;SDS011;12542;50.924;4.516;2022-07-04T00:44:42;7.97;;;3.70;;
24407;SDS011;12542;50.924;4.516;2022-07-04T00:47:08;8.60;;;3.40;;
24407;SDS011;12542;50.924;4.516;2022-07-04T00:49:36;7.70;;;3.72;;
24407;SDS011;12542;50.924;4.516;2022-07-04T00:52:02;6.75;;;3.78;;
24407;SDS011;12542;50.924;4.516;2022-07-04T00:54:29;9.18;;;3.13;;
24407;SDS011;12542;50.924;4.516;2022-07-04T00:56:56;10.10;;;3.55;;
24407;SDS011;12542;50.924;4.516;2022-07-04T00:59:25;6.82;;;3.22;;
24407;SDS011;12542;50.924;4.516;2022-07-04T01:01:51;10.00;;;3.42;;
24407;SDS011;12542;50.924;4.516;2022-07-04T01:04:16;6.70;;;3.53;;
24407;SDS011;12542;50.924;4.516;2022-07-04T01:06:44;5.55;;;3.33;;
24407;SDS011;12542;50.924;4.516;2022-07-04T01:09:10;4.63;;;2.90;;
24407;SDS011;12542;50.924;4.516;2022-07-04T01:11:37;6.38;;;3.05;;
24407;SDS011;12542;50.924;4.516;2022-07-04T01:14:03;6.28;;;3.35;;
24407;SDS011;12542;50.924;4.516;2022-07-04T01:16:33;7.53;;;3.58;;
24407;SDS011;12542;50.924;4.516;2022-07-04T01:18:59;6.28;;;3.50;;
24407;SDS011;12542;50.924;4.516;2022-07-04T01:21:25;6.90;;;3.00;;
24407;SDS011;12542;50.924;4.516;2022-07-04T01:23:51;7.05;;;3.42;;
24407;SDS011;12542;50.924;4.516;2022-07-04T01:26:17;7.57;;;3.53;;
24407;SDS011;12542;50.924;4.516;2022-07-04T01:28:45;6.90;;;3.15;;
24407;SDS011;12542;50.924;4.516;2022-07-04T01:31:11;8.20;;;3.42;;
24407;SDS011;12542;50.924;4.516;2022-07-04T01:33:37;6.72;;;3.47;;
24407;SDS011;12542;50.924;4.516;2022-07-04T01:36:09;7.55;;;3.08;;
24407;SDS011;12542;50.924;4.516;2022-07-04T01:38:34;5.25;;;2.90;;
24407;SDS011;12542;50.924;4.516;2022-07-04T01:41:00;7.82;;;3.65;;
24407;SDS011;12542;50.924;4.516;2022-07-04T01:43:28;6.38;;;2.85;;
24407;SDS011;12542;50.924;4.516;2022-07-04T01:45:54;6.10;;;2.70;;
24407;SDS011;12542;50.924;4.516;2022-07-04T01:48:19;4.82;;;2.80;;
24407;SDS011;12542;50.924;4.516;2022-07-04T01:50:45;6.95;;;3.08;;
24407;SDS011;12542;50.924;4.516;2022-07-04T01:53:11;7.15;;;3.25;;
24407;SDS011;12542;50.924;4.516;2022-07-04T01:55:36;6.82;;;2.83;;
24407;SDS011;12542;50.924;4.516;2022-07-04T01:58:02;6.18;;;2.95;;
24407;SDS011;12542;50.924;4.516;2022-07-04T02:00:27;9.07;;;2.55;;
24407;SDS011;12542;50.924;4.516;2022-07-04T02:03:12;7.53;;;3.03;;
24407;SDS011;12542;50.924;4.516;2022-07-04T02:05:42;5.90;;;2.83;;
24407;SDS011;12542;50.924;4.516;2022-07-04T02:08:10;6.47;;;2.97;;
24407;SDS011;12542;50.924;4.516;2022-07-04T02:10:39;10.43;;;3.15;;
24407;SDS011;12542;50.924;4.516;2022-07-04T02:13:04;7.10;;;3.17;;
24407;SDS011;12542;50.924;4.516;2022-07-04T02:15:32;7.28;;;2.85;;
24407;SDS011;12542;50.924;4.516;2022-07-04T02:18:03;6.18;;;2.90;;
24407;SDS011;12542;50.924;4.516;2022-07-04T02:20:34;7.88;;;2.80;;
24407;SDS011;12542;50.924;4.516;2022-07-04T02:23:00;10.10;;;2.70;;
24407;SDS011;12542;50.924;4.516;2022-07-04T02:25:27;7.22;;;2.83;;
24407;SDS011;12542;50.924;4.516;2022-07-04T02:27:53;5.30;;;2.55;;
24407;SDS011;12542;50.924;4.516;2022-07-04T02:30:19;4.47;;;2.30;;
24407;SDS011;12542;50.924;4.516;2022-07-04T02:32:45;7.50;;;2.65;;
24407;SDS011;12542;50.924;4.516;2022-07-04T02:35:11;4.70;;;2.50;;
24407;SDS011;12542;50.924;4.516;2022-07-04T02:37:40;6.97;;;2.20;;
24407;SDS011;12542;50.924;4.516;2022-07-04T02:40:06;4.50;;;1.95;;
24407;SDS011;12542;50.924;4.516;2022-07-04T02:42:33;9.52;;;2.15;;
24407;SDS011;12542;50.924;4.516;2022-07-04T02:45:00;9.60;;;2.50;;
24407;SDS011;12542;50.924;4.516;2022-07-04T02:47:26;5.32;;;1.98;;
24407;SDS011;12542;50.924;4.516;2022-07-04T02:49:54;5.05;;;1.83;;
24407;SDS011;12542;50.924;4.516;2022-07-04T02:52:20;4.72;;;1.85;;
24407;SDS011;12542;50.924;4.516;2022-07-04T02:54:46;5.18;;;2.13;;
24407;SDS011;12542;50.924;4.516;2022-07-04T02:57:14;8.10;;;2.60;;
24407;SDS011;12542;50.924;4.516;2022-07-04T02:59:42;6.18;;;1.95;;
24407;SDS011;12542;50.924;4.516;2022-07-04T03:02:08;6.50;;;1.95;;
24407;SDS011;12542;50.924;4.516;2022-07-04T03:04:36;5.80;;;1.80;;
24407;SDS011;12542;50.924;4.516;2022-07-04T03:07:05;4.28;;;2.08;;
24407;SDS011;12542;50.924;4.516;2022-07-04T03:09:31;4.57;;;2.10;;
24407;SDS011;12542;50.924;4.516;2022-07-04T03:11:57;7.68;;;1.85;;
24407;SDS011;12542;50.924;4.516;2022-07-04T03:14:25;5.90;;;2.10;;
24407;SDS011;12542;50.924;4.516;2022-07-04T03:16:51;10.98;;;2.10;;
24407;SDS011;12542;50.924;4.516;2022-07-04T03:19:17;11.02;;;2.40;;
24407;SDS011;12542;50.924;4.516;2022-07-04T03:21:43;7.50;;;1.95;;
24407;SDS011;12542;50.924;4.516;2022-07-04T03:24:09;3.92;;;1.80;;
24407;SDS011;12542;50.924;4.516;2022-07-04T03:26:35;5.65;;;2.30;;
24407;SDS011;12542;50.924;4.516;2022-07-04T03:29:01;5.43;;;2.03;;
24407;SDS011;12542;50.924;4.516;2022-07-04T03:31:28;7.28;;;2.13;;
24407;SDS011;12542;50.924;4.516;2022-07-04T03:33:56;10.73;;;2.58;;
24407;SDS011;12542;50.924;4.516;2022-07-04T03:36:22;5.65;;;2.30;;
24407;SDS011;12542;50.924;4.516;2022-07-04T03:38:48;8.60;;;2.13;;
24407;SDS011;12542;50.924;4.516;2022-07-04T03:41:14;6.05;;;2.00;;
24407;SDS011;12542;50.924;4.516;2022-07-04T03:43:42;4.78;;;1.98;;
24407;SDS011;12542;50.924;4.516;2022-07-04T03:46:08;7.40;;;2.33;;
24407;SDS011;12542;50.924;4.516;2022-07-04T03:48:34;6.75;;;2.30;;
24407;SDS011;12542;50.924;4.516;2022-07-04T03:51:01;5.15;;;2.15;;
24407;SDS011;12542;50.924;4.516;2022-07-04T03:53:26;6.28;;;2.20;;
24407;SDS011;12542;50.924;4.516;2022-07-04T03:55:52;7.10;;;2.28;;
24407;SDS011;12542;50.924;4.516;2022-07-04T03:58:20;7.28;;;2.20;;
24407;SDS011;12542;50.924;4.516;2022-07-04T04:00:46;6.45;;;2.03;;
24407;SDS011;12542;50.924;4.516;2022-07-04T04:03:12;5.07;;;2.47;;
24407;SDS011;12542;50.924;4.516;2022-07-04T04:05:56;3.33;;;1.90;;
24407;SDS011;12542;50.924;4.516;2022-07-04T04:08:23;7.28;;;2.40;;
24407;SDS011;12542;50.924;4.516;2022-07-04T04:10:50;16.75;;;2.60;;
24407;SDS011;12542;50.924;4.516;2022-07-04T04:13:18;7.30;;;2.00;;
24407;SDS011;12542;50.924;4.516;2022-07-04T04:15:46;6.28;;;2.30;;
24407;SDS011;12542;50.924;4.516;2022-07-04T04:18:12;4.78;;;2.15;;
24407;SDS011;12542;50.924;4.516;2022-07-04T04:20:38;5.75;;;2.38;;
24407;SDS011;12542;50.924;4.516;2022-07-04T04:23:04;10.85;;;2.28;;
24407;SDS011;12542;50.924;4.516;2022-07-04T04:25:32;5.07;;;2.15;;
24407;SDS011;12542;50.924;4.516;2022-07-04T04:27:58;5.50;;;2.05;;
24407;SDS011;12542;50.924;4.516;2022-07-04T04:30:24;6.70;;;2.00;;
24407;SDS011;12542;50.924;4.516;2022-07-04T04:32:52;4.97;;;1.80;;
24407;SDS011;12542;50.924;4.516;2022-07-04T04:35:17;4.82;;;2.10;;
24407;SDS011;12542;50.924;4.516;2022-07-04T04:37:45;4.40;;;1.70;;
24407;SDS011;12542;50.924;4.516;2022-07-04T04:40:11;6.15;;;1.48;;
24407;SDS011;12542;50.924;4.516;2022-07-04T04:42:37;3.45;;;1.20;;
24407;SDS011;12542;50.924;4.516;2022-07-04T04:45:05;6.53;;;1.60;;
24407;SDS011;12542;50.924;4.516;2022-07-04T04:47:31;3.15;;;1.27;;
24407;SDS011;12542;50.924;4.516;2022-07-04T04:49:58;4.95;;;1.30;;
24407;SDS011;12542;50.924;4.516;2022-07-04T04:52:23;5.85;;;1.55;;
24407;SDS011;12542;50.924;4.516;2022-07-04T04:54:49;4.13;;;0.82;;
24407;SDS011;12542;50.924;4.516;2022-07-04T04:57:17;4.72;;;1.20;;
24407;SDS011;12542;50.924;4.516;2022-07-04T04:59:43;3.63;;;1.00;;
24407;SDS011;12542;50.924;4.516;2022-07-04T05:02:09;5.35;;;1.00;;
24407;SDS011;12542;50.924;4.516;2022-07-04T05:04:35;4.78;;;1.60;;
24407;SDS011;12542;50.924;4.516;2022-07-04T05:07:02;3.47;;;1.10;;
24407;SDS011;12542;50.924;4.516;2022-07-04T05:09:29;4.90;;;1.08;;
24407;SDS011;12542;50.924;4.516;2022-07-04T05:11:54;4.68;;;1.10;;
24407;SDS011;12542;50.924;4.516;2022-07-04T05:14:20;3.83;;;1.05;;
24407;SDS011;12542;50.924;4.516;2022-07-04T05:16:46;4.50;;;0.90;;
24407;SDS011;12542;50.924;4.516;2022-07-04T05:19:16;4.22;;;1.13;;
24407;SDS011;12542;50.924;4.516;2022-07-04T05:21:42;3.28;;;0.88;;
24407;SDS011;12542;50.924;4.516;2022-07-04T05:24:08;3.08;;;0.90;;
24407;SDS011;12542;50.924;4.516;2022-07-04T05:26:36;3.60;;;1.30;;
24407;SDS011;12542;50.924;4.516;2022-07-04T05:29:04;5.57;;;0.98;;
24407;SDS011;12542;50.924;4.516;2022-07-04T05:31:29;7.53;;;0.88;;
24407;SDS011;12542;50.924;4.516;2022-07-04T05:33:55;3.78;;;1.00;;
24407;SDS011;12542;50.924;4.516;2022-07-04T05:36:23;4.63;;;1.10;;
24407;SDS011;12542;50.924;4.516;2022-07-04T05:38:49;4.50;;;1.35;;
24407;SDS011;12542;50.924;4.516;2022-07-04T05:41:15;6.75;;;1.15;;
24407;SDS011;12542;50.924;4.516;2022-07-04T05:43:41;2.83;;;0.70;;
24407;SDS011;12542;50.924;4.516;2022-07-04T05:46:07;3.28;;;0.90;;
24407;SDS011;12542;50.924;4.516;2022-07-04T05:48:33;2.55;;;0.70;;
24407;SDS011;12542;50.924;4.516;2022-07-04T05:50:59;3.83;;;0.75;;
24407;SDS011;12542;50.924;4.516;2022-07-04T05:53:27;5.05;;;1.10;;
24407;SDS011;12542;50.924;4.516;2022-07-04T05:55:53;2.75;;;0.90;;
24407;SDS011;12542;50.924;4.516;2022-07-04T05:58:22;4.53;;;1.15;;
24407;SDS011;12542;50.924;4.516;2022-07-04T06:00:49;2.22;;;0.70;;
24407;SDS011;12542;50.924;4.516;2022-07-04T06:03:15;2.92;;;0.80;;
24407;SDS011;12542;50.924;4.516;2022-07-04T06:05:41;3.78;;;0.80;;
24407;SDS011;12542;50.924;4.516;2022-07-04T06:08:07;3.05;;;0.82;;
24407;SDS011;12542;50.924;4.516;2022-07-04T06:10:33;3.05;;;0.80;;
24407;SDS011;12542;50.924;4.516;2022-07-04T06:13:02;2.70;;;0.73;;
24407;SDS011;12542;50.924;4.516;2022-07-04T06:15:30;4.65;;;0.85;;
24407;SDS011;12542;50.924;4.516;2022-07-04T06:17:57;4.55;;;0.82;;
24407;SDS011;12542;50.924;4.516;2022-07-04T06:20:22;4.80;;;0.88;;
24407;SDS011;12542;50.924;4.516;2022-07-04T06:22:48;6.47;;;1.35;;
24407;SDS011;12542;50.924;4.516;2022-07-04T06:25:15;2.55;;;0.70;;
24407;SDS011;12542;50.924;4.516;2022-07-04T06:27:45;4.53;;;0.60;;
24407;SDS011;12542;50.924;4.516;2022-07-04T06:30:12;2.53;;;1.00;;
24407;SDS011;12542;50.924;4.516;2022-07-04T06:35:16;2.17;;;0.65;;
24407;SDS011;12542;50.924;4.516;2022-07-04T06:38:02;2.45;;;0.88;;
24407;SDS011;12542;50.924;4.516;2022-07-04T06:40:31;4.60;;;0.60;;
24407;SDS011;12542;50.924;4.516;2022-07-04T06:42:59;2.78;;;0.65;;
24407;SDS011;12542;50.924;4.516;2022-07-04T06:45:27;4.00;;;0.88;;
24407;SDS011;12542;50.924;4.516;2022-07-04T06:47:53;4.78;;;0.95;;
24407;SDS011;12542;50.924;4.516;2022-07-04T06:50:19;4.07;;;0.80;;
24407;SDS011;12542;50.924;4.516;2022-07-04T06:52:45;3.63;;;1.02;;
24407;SDS011;12542;50.924;4.516;2022-07-04T06:55:10;4.50;;;0.85;;
24407;SDS011;12542;50.924;4.516;2022-07-04T06:57:36;3.08;;;0.80;;
24407;SDS011;12542;50.924;4.516;2022-07-04T07:00:04;8.13;;;0.98;;
24407;SDS011;12542;50.924;4.516;2022-07-04T07:02:36;4.75;;;0.73;;
24407;SDS011;12542;50.924;4.516;2022-07-04T07:05:03;8.82;;;1.00;;
24407;SDS011;12542;50.924;4.516;2022-07-04T07:07:30;2.53;;;0.80;;
24407;SDS011;12542;50.924;4.516;2022-07-04T07:09:55;4.00;;;1.00;;
24407;SDS011;12542;50.924;4.516;2022-07-04T07:12:23;3.03;;;0.60;;
24407;SDS011;12542;50.924;4.516;2022-07-04T07:14:49;9.75;;;1.98;;
24407;SDS011;12542;50.924;4.516;2022-07-04T07:17:16;5.22;;;0.77;;
24407;SDS011;12542;50.924;4.516;2022-07-04T07:19:42;6.07;;;0.93;;
24407;SDS011;12542;50.924;4.516;2022-07-04T07:22:09;4.53;;;0.60;;
24407;SDS011;12542;50.924;4.516;2022-07-04T07:24:37;4.82;;;0.90;;
24407;SDS011;12542;50.924;4.516;2022-07-04T07:27:04;3.40;;;1.10;;
24407;SDS011;12542;50.924;4.516;2022-07-04T07:29:30;5.32;;;0.80;;
24407;SDS011;12542;50.924;4.516;2022-07-04T07:31:57;2.53;;;0.65;;
24407;SDS011;12542;50.924;4.516;2022-07-04T07:34:23;3.22;;;0.70;;
24407;SDS011;12542;50.924;4.516;2022-07-04T07:36:49;3.35;;;0.80;;
24407;SDS011;12542;50.924;4.516;2022-07-04T07:39:17;4.72;;;0.57;;
24407;SDS011;12542;50.924;4.516;2022-07-04T07:41:43;3.40;;;0.60;;
24407;SDS011;12542;50.924;4.516;2022-07-04T07:44:11;4.75;;;0.80;;
24407;SDS011;12542;50.924;4.516;2022-07-04T07:46:37;1.50;;;0.60;;
24407;SDS011;12542;50.924;4.516;2022-07-04T07:49:03;5.20;;;0.65;;
24407;SDS011;12542;50.924;4.516;2022-07-04T07:51:31;5.20;;;1.15;;
24407;SDS011;12542;50.924;4.516;2022-07-04T07:53:58;2.78;;;0.50;;
24407;SDS011;12542;50.924;4.516;2022-07-04T07:56:24;2.45;;;0.60;;
24407;SDS011;12542;50.924;4.516;2022-07-04T07:58:50;5.30;;;1.20;;
24407;SDS011;12542;50.924;4.516;2022-07-04T08:01:19;3.63;;;0.60;;
24407;SDS011;12542;50.924;4.516;2022-07-04T08:03:45;2.95;;;0.80;;
24407;SDS011;12542;50.924;4.516;2022-07-04T08:06:32;2.53;;;0.98;;
24407;SDS011;12542;50.924;4.516;2022-07-04T08:08:58;3.55;;;0.52;;
24407;SDS011;12542;50.924;4.516;2022-07-04T08:11:24;3.97;;;0.60;;
24407;SDS011;12542;50.924;4.516;2022-07-04T08:13:51;4.95;;;0.63;;
24407;SDS011;12542;50.924;4.516;2022-07-04T08:16:17;3.45;;;0.40;;
24407;SDS011;12542;50.924;4.516;2022-07-04T08:18:45;3.63;;;0.50;;
24407;SDS011;12542;50.924;4.516;2022-07-04T08:21:13;4.10;;;0.65;;
24407;SDS011;12542;50.924;4.516;2022-07-04T08:23:41;3.63;;;0.70;;
24407;SDS011;12542;50.924;4.516;2022-07-04T08:26:07;3.33;;;0.50;;
24407;SDS011;12542;50.924;4.516;2022-07-04T08:28:33;5.80;;;0.70;;
24407;SDS011;12542;50.924;4.516;2022-07-04T08:30:59;2.63;;;0.38;;
24407;SDS011;12542;50.924;4.516;2022-07-04T08:33:25;3.97;;;0.63;;
24407;SDS011;12542;50.924;4.516;2022-07-04T08:35:51;4.68;;;0.95;;
24407;SDS011;12542;50.924;4.516;2022-07-04T08:38:19;4.28;;;0.70;;
24407;SDS011;12542;50.924;4.516;2022-07-04T08:40:46;2.60;;;0.68;;
24407;SDS011;12542;50.924;4.516;2022-07-04T08:43:15;1.23;;;0.30;;
24407;SDS011;12542;50.924;4.516;2022-07-04T08:48:14;3.13;;;0.70;;
24407;SDS011;12542;50.924;4.516;2022-07-04T08:50:47;3.50;;;0.68;;
24407;SDS011;12542;50.924;4.516;2022-07-04T08:53:18;2.53;;;0.60;;
24407;SDS011;12542;50.924;4.516;2022-07-04T08:55:46;3.42;;;0.50;;
24407;SDS011;12542;50.924;4.516;2022-07-04T08:58:32;2.25;;;0.40;;
24407;SDS011;12542;50.924;4.516;2022-07-04T09:03:32;4.75;;;0.95;;
24407;SDS011;12542;50.924;4.516;2022-07-04T09:05:58;2.90;;;0.85;;
24407;SDS011;12542;50.924;4.516;2022-07-04T09:08:28;5.88;;;0.77;;
24407;SDS011;12542;50.924;4.516;2022-07-04T09:10:54;7.10;;;1.00;;
24407;SDS011;12542;50.924;4.516;2022-07-04T09:13:20;2.50;;;0.82;;
24407;SDS011;12542;50.924;4.516;2022-07-04T09:15:47;2.83;;;0.50;;
24407;SDS011;12542;50.924;4.516;2022-07-04T09:18:21;6.25;;;0.70;;
24407;SDS011;12542;50.924;4.516;2022-07-04T09:20:53;3.63;;;0.80;;
24407;SDS011;12542;50.924;4.516;2022-07-04T09:23:23;6.03;;;0.98;;
24407;SDS011;12542;50.924;4.516;2022-07-04T09:26:05;2.83;;;0.70;;
24407;SDS011;12542;50.924;4.516;2022-07-04T09:28:35;4.32;;;0.95;;
24407;SDS011;12542;50.924;4.516;2022-07-04T09:31:01;6.47;;;1.00;;
24407;SDS011;12542;50.924;4.516;2022-07-04T09:33:44;2.40;;;0.77;;
24407;SDS011;12542;50.924;4.516;2022-07-04T09:36:14;2.50;;;0.80;;
24407;SDS011;12542;50.924;4.516;2022-07-04T09:38:41;8.90;;;1.60;;
24407;SDS011;12542;50.924;4.516;2022-07-04T09:41:07;5.55;;;0.90;;
24407;SDS011;12542;50.924;4.516;2022-07-04T09:43:58;5.57;;;0.75;;
24407;SDS011;12542;50.924;4.516;2022-07-04T09:46:28;3.80;;;0.88;;
24407;SDS011;12542;50.924;4.516;2022-07-04T09:48:55;3.53;;;1.20;;
24407;SDS011;12542;50.924;4.516;2022-07-04T09:56:52;2.88;;;0.80;;
24407;SDS011;12542;50.924;4.516;2022-07-04T09:59:19;4.45;;;0.60;;
24407;SDS011;12542;50.924;4.516;2022-07-04T10:01:47;3.92;;;0.70;;
24407;SDS011;12542;50.924;4.516;2022-07-04T10:04:16;4.70;;;0.85;;
24407;SDS011;12542;50.924;4.516;2022-07-04T10:06:45;5.63;;;0.60;;
24407;SDS011;12542;50.924;4.516;2022-07-04T10:09:15;4.85;;;0.80;;
24407;SDS011;12542;50.924;4.516;2022-07-04T10:11:43;5.03;;;0.80;;
24407;SDS011;12542;50.924;4.516;2022-07-04T10:14:10;2.72;;;0.68;;
24407;SDS011;12542;50.924;4.516;2022-07-04T10:16:37;2.75;;;0.63;;
24407;SDS011;12542;50.924;4.516;2022-07-04T10:19:05;3.15;;;0.60;;
24407;SDS011;12542;50.924;4.516;2022-07-04T10:21:34;5.82;;;0.40;;
24407;SDS011;12542;50.924;4.516;2022-07-04T10:24:01;2.42;;;0.85;;
24407;SDS011;12542;50.924;4.516;2022-07-04T10:26:28;8.48;;;1.17;;
24407;SDS011;12542;50.924;4.516;2022-07-04T10:28:55;3.85;;;0.60;;
24407;SDS011;12542;50.924;4.516;2022-07-04T10:31:22;5.57;;;0.80;;
24407;SDS011;12542;50.924;4.516;2022-07-04T10:33:51;2.00;;;0.57;;
24407;SDS011;12542;50.924;4.516;2022-07-04T10:36:21;2.65;;;0.60;;
24407;SDS011;12542;50.924;4.516;2022-07-04T10:38:53;5.57;;;0.63;;
24407;SDS011;12542;50.924;4.516;2022-07-04T10:41:20;2.72;;;0.60;;
24407;SDS011;12542;50.924;4.516;2022-07-04T10:46:51;5.15;;;0.70;;
24407;SDS011;12542;50.924;4.516;2022-07-04T10:49:22;3.90;;;0.80;;
24407;SDS011;12542;50.924;4.516;2022-07-04T10:51:51;4.35;;;1.00;;
24407;SDS011;12542;50.924;4.516;2022-07-04T10:54:38;4.45;;;0.70;;
24407;SDS011;12542;50.924;4.516;2022-07-04T10:59:43;5.50;;;0.80;;
24407;SDS011;12542;50.924;4.516;2022-07-04T11:02:30;2.88;;;0.60;;
24407;SDS011;12542;50.924;4.516;2022-07-04T11:17:52;2.78;;;0.55;;
24407;SDS011;12542;50.924;4.516;2022-07-04T11:20:27;3.85;;;0.80;;
24407;SDS011;12542;50.924;4.516;2022-07-04T11:23:03;2.20;;;0.50;;
24407;SDS011;12542;50.924;4.516;2022-07-04T11:25:33;3.60;;;0.70;;
24407;SDS011;12542;50.924;4.516;2022-07-04T11:30:52;3.28;;;0.82;;
24407;SDS011;12542;50.924;4.516;2022-07-04T11:33:21;3.72;;;0.80;;
24407;SDS011;12542;50.924;4.516;2022-07-04T11:41:19;4.57;;;0.75;;
24407;SDS011;12542;50.924;4.516;2022-07-04T11:44:15;4.85;;;0.85;;
24407;SDS011;12542;50.924;4.516;2022-07-04T11:47:08;3.22;;;1.00;;
24407;SDS011;12542;50.924;4.516;2022-07-04T11:49:35;6.00;;;0.63;;
24407;SDS011;12542;50.924;4.516;2022-07-04T11:52:02;5.70;;;1.17;;
24407;SDS011;12542;50.924;4.516;2022-07-04T11:54:28;3.15;;;0.93;;
24407;SDS011;12542;50.924;4.516;2022-07-04T11:57:11;4.10;;;0.73;;
24407;SDS011;12542;50.924;4.516;2022-07-04T11:59:59;5.18;;;1.45;;
24407;SDS011;12542;50.924;4.516;2022-07-04T12:02:30;4.40;;;1.10;;
24407;SDS011;12542;50.924;4.516;2022-07-04T12:04:57;7.53;;;1.10;;
24407;SDS011;12542;50.924;4.516;2022-07-04T12:07:26;6.35;;;0.93;;
24407;SDS011;12542;50.924;4.516;2022-07-04T12:09:55;4.28;;;0.93;;
24407;SDS011;12542;50.924;4.516;2022-07-04T12:12:21;3.65;;;1.08;;
24407;SDS011;12542;50.924;4.516;2022-07-04T12:19:59;4.15;;;0.88;;
24407;SDS011;12542;50.924;4.516;2022-07-04T12:22:42;2.85;;;0.85;;
24407;SDS011;12542;50.924;4.516;2022-07-04T12:25:24;2.55;;;0.68;;
24407;SDS011;12542;50.924;4.516;2022-07-04T12:30:25;10.70;;;1.30;;
24407;SDS011;12542;50.924;4.516;2022-07-04T12:32:58;8.38;;;1.13;;
24407;SDS011;12542;50.924;4.516;2022-07-04T12:35:32;10.27;;;1.25;;
24407;SDS011;12542;50.924;4.516;2022-07-04T12:38:07;4.55;;;0.90;;
24407;SDS011;12542;50.924;4.516;2022-07-04T12:40:35;3.38;;;0.90;;
24407;SDS011;12542;50.924;4.516;2022-07-04T12:43:02;5.75;;;0.65;;
24407;SDS011;12542;50.924;4.516;2022-07-04T12:45:46;2.35;;;0.88;;
24407;SDS011;12542;50.924;4.516;2022-07-04T12:48:26;4.80;;;0.98;;
24407;SDS011;12542;50.924;4.516;2022-07-04T12:50:53;2.33;;;0.70;;
24407;SDS011;12542;50.924;4.516;2022-07-04T12:53:21;3.55;;;0.98;;
24407;SDS011;12542;50.924;4.516;2022-07-04T12:55:49;3.97;;;1.27;;
24407;SDS011;12542;50.924;4.516;2022-07-04T12:58:18;1.83;;;0.60;;
24407;SDS011;12542;50.924;4.516;2022-07-04T13:00:45;3.78;;;0.68;;
24407;SDS011;12542;50.924;4.516;2022-07-04T13:03:11;3.55;;;0.77;;
24407;SDS011;12542;50.924;4.516;2022-07-04T13:05:37;5.47;;;1.00;;
24407;SDS011;12542;50.924;4.516;2022-07-04T13:08:04;3.58;;;0.80;;
24407;SDS011;12542;50.924;4.516;2022-07-04T13:10:33;3.38;;;0.75;;
24407;SDS011;12542;50.924;4.516;2022-07-04T13:12:59;3.28;;;0.95;;
24407;SDS011;12542;50.924;4.516;2022-07-04T13:15:25;2.38;;;0.68;;
24407;SDS011;12542;50.924;4.516;2022-07-04T13:17:50;3.85;;;0.95;;
24407;SDS011;12542;50.924;4.516;2022-07-04T13:20:16;3.15;;;0.90;;
24407;SDS011;12542;50.924;4.516;2022-07-04T13:22:42;4.28;;;1.17;;
24407;SDS011;12542;50.924;4.516;2022-07-04T13:25:08;8.43;;;1.42;;
24407;SDS011;12542;50.924;4.516;2022-07-04T13:27:34;4.40;;;0.85;;
24407;SDS011;12542;50.924;4.516;2022-07-04T13:30:00;7.55;;;1.40;;
24407;SDS011;12542;50.924;4.516;2022-07-04T13:32:27;8.77;;;1.20;;
24407;SDS011;12542;50.924;4.516;2022-07-04T13:34:53;2.30;;;0.90;;
24407;SDS011;12542;50.924;4.516;2022-07-04T13:37:19;11.90;;;1.15;;
24407;SDS011;12542;50.924;4.516;2022-07-04T13:39:45;2.58;;;0.85;;
24407;SDS011;12542;50.924;4.516;2022-07-04T13:42:11;4.68;;;0.63;;
24407;SDS011;12542;50.924;4.516;2022-07-04T13:44:38;3.90;;;0.93;;
24407;SDS011;12542;50.924;4.516;2022-07-04T13:47:03;4.00;;;0.90;;
24407;SDS011;12542;50.924;4.516;2022-07-04T13:49:32;5.82;;;1.10;;
24407;SDS011;12542;50.924;4.516;2022-07-04T13:51:58;6.30;;;1.27;;
24407;SDS011;12542;50.924;4.516;2022-07-04T13:54:23;4.18;;;0.70;;
24407;SDS011;12542;50.924;4.516;2022-07-04T13:56:52;5.68;;;3.50;;
24407;SDS011;12542;50.924;4.516;2022-07-04T13:59:20;7.00;;;1.55;;
24407;SDS011;12542;50.924;4.516;2022-07-04T14:01:48;8.80;;;1.23;;
24407;SDS011;12542;50.924;4.516;2022-07-04T14:04:15;4.90;;;0.95;;
24407;SDS011;12542;50.924;4.516;2022-07-04T14:06:40;3.25;;;0.80;;
24407;SDS011;12542;50.924;4.516;2022-07-04T14:09:09;6.93;;;0.80;;
24407;SDS011;12542;50.924;4.516;2022-07-04T14:11:35;5.75;;;1.10;;
24407;SDS011;12542;50.924;4.516;2022-07-04T14:14:00;4.70;;;0.98;;
24407;SDS011;12542;50.924;4.516;2022-07-04T14:16:26;2.80;;;0.93;;
24407;SDS011;12542;50.924;4.516;2022-07-04T14:18:52;2.10;;;0.50;;
24407;SDS011;12542;50.924;4.516;2022-07-04T14:21:20;3.53;;;0.82;;
24407;SDS011;12542;50.924;4.516;2022-07-04T14:23:46;4.82;;;1.00;;
24407;SDS011;12542;50.924;4.516;2022-07-04T14:26:12;5.15;;;1.20;;
24407;SDS011;12542;50.924;4.516;2022-07-04T14:28:43;4.95;;;1.10;;
24407;SDS011;12542;50.924;4.516;2022-07-04T14:31:12;3.42;;;1.17;;
24407;SDS011;12542;50.924;4.516;2022-07-04T14:33:40;4.70;;;0.90;;
24407;SDS011;12542;50.924;4.516;2022-07-04T14:36:06;5.25;;;1.38;;
24407;SDS011;12542;50.924;4.516;2022-07-04T14:38:32;2.75;;;1.00;;
24407;SDS011;12542;50.924;4.516;2022-07-04T14:40:58;2.67;;;0.80;;
24407;SDS011;12542;50.924;4.516;2022-07-04T14:43:34;3.53;;;1.00;;
24407;SDS011;12542;50.924;4.516;2022-07-04T14:46:04;2.78;;;0.85;;
24407;SDS011;12542;50.924;4.516;2022-07-04T14:48:30;3.28;;;0.80;;
24407;SDS011;12542;50.924;4.516;2022-07-04T14:50:56;4.05;;;0.90;;
24407;SDS011;12542;50.924;4.516;2022-07-04T14:53:22;3.92;;;1.05;;
24407;SDS011;12542;50.924;4.516;2022-07-04T14:55:50;5.22;;;0.77;;
24407;SDS011;12542;50.924;4.516;2022-07-04T14:58:19;3.35;;;0.70;;
24407;SDS011;12542;50.924;4.516;2022-07-04T15:00:45;4.20;;;1.02;;
24407;SDS011;12542;50.924;4.516;2022-07-04T15:03:11;3.33;;;0.90;;
24407;SDS011;12542;50.924;4.516;2022-07-04T15:05:37;3.05;;;0.90;;
24407;SDS011;12542;50.924;4.516;2022-07-04T15:08:02;2.30;;;0.80;;
24407;SDS011;12542;50.924;4.516;2022-07-04T15:10:28;3.35;;;1.00;;
24407;SDS011;12542;50.924;4.516;2022-07-04T15:12:57;3.05;;;0.98;;
24407;SDS011;12542;50.924;4.516;2022-07-04T15:15:23;3.88;;;1.15;;
24407;SDS011;12542;50.924;4.516;2022-07-04T15:17:49;3.38;;;0.80;;
24407;SDS011;12542;50.924;4.516;2022-07-04T15:20:15;2.33;;;0.73;;
24407;SDS011;12542;50.924;4.516;2022-07-04T15:22:59;4.30;;;0.80;;
24407;SDS011;12542;50.924;4.516;2022-07-04T15:25:43;2.27;;;0.93;;
24407;SDS011;12542;50.924;4.516;2022-07-04T15:28:09;2.55;;;0.73;;
24407;SDS011;12542;50.924;4.516;2022-07-04T15:30:35;3.72;;;0.93;;
24407;SDS011;12542;50.924;4.516;2022-07-04T15:33:01;3.08;;;0.70;;
24407;SDS011;12542;50.924;4.516;2022-07-04T15:35:27;3.35;;;1.00;;
24407;SDS011;12542;50.924;4.516;2022-07-04T15:37:55;1.77;;;0.80;;
24407;SDS011;12542;50.924;4.516;2022-07-04T15:40:21;3.38;;;0.85;;